FW7026 Weather Reports


Display with metric or nautical units.
time (UTC)temp
F
wind
direction
speed
MPH
gust
MPH
rain 1hr
in
rain 24hr
in
rain mn
in
humidity
%
barometer
mb
20210421181019 33 223 0.0 0.0 0.00 0.08 0.08 92 1006.1
20210421180514 33 204 0.0 0.0 0.00 0.08 0.08 92 1005.7
20210421180146 33 133 0.0 0.0 0.00 0.08 0.08 90 1005.7
20210421175510 33 116 0.0 0.0 0.00 0.08 0.08 89 1006.1
20210421175048 34 141 0.0 0.0 0.00 0.08 0.08 86 1006.1
20210421174552 34 109 0.0 2.0 0.00 0.08 0.08 85 1006.1
20210421174006 34 150 0.0 0.0 0.00 0.08 0.08 84 1006.1
20210421173501 34 153 0.0 0.0 0.00 0.08 0.08 83 1006.4
20210421172954 34 179 0.0 0.0 0.00 0.08 0.08 83 1006.4
20210421172627 34 316 0.0 0.0 0.07 0.08 0.08 84 1006.4
20210421163759 34 136 0.0 0.0 0.07 0.07 0.07 83 1007.1
20210421162121 34 173 0.0 0.0 0.07 0.06 0.06 83 1008.1
20210421154223 34 203 0.0 0.0 0.07 0.04 0.04 83 1008.8
20210421152435 34 160 0.0 0.0 0.07 0.02 0.02 83 1009.1
20210421150754 34 223 1.0 2.0 0.00 0.01 0.01 83 1009.5
20210421144405 36 177 4.0 5.0 0.00 0.00 0.00 77 1009.5
20210421143536 36 192 0.0 0.0 0.00 0.00 0.00 75 1009.5
20210421142750 37 183 5.0 8.0 0.00 0.00 0.00 74 1009.5
20210421141824 38 250 8.0 10.0 0.00 0.00 0.00 58 1009.1
20210421134645 38 276 3.0 5.0 0.00 0.00 0.00 57 1009.5
20210421134147 38 253 6.0 10.0 0.00 0.00 0.00 57 1009.1
20210421133709 38 196 2.0 2.0 0.00 0.00 0.00 58 1009.5
20210421133218 38 254 2.0 5.0 0.00 0.00 0.00 57 1009.5
20210421132757 38 216 3.0 8.0 0.00 0.00 0.00 59 1009.5
20210421132130 38 284 2.0 2.0 0.00 0.00 0.00 58 1009.5
20210421131606 38 252 3.0 5.0 0.00 0.00 0.00 58 1009.1
20210421124444 37 252 2.0 2.0 0.00 0.00 0.00 61 1009.1
20210421124107 37 219 2.0 2.0 0.00 0.00 0.00 61 1009.1
20210421123629 37 240 0.0 0.0 0.00 0.00 0.00 62 1009.5
20210421123136 37 228 2.0 5.0 0.00 0.00 0.00 61 1009.1
20210421122657 37 268 2.0 2.0 0.00 0.00 0.00 61 1009.1
20210421122214 37 226 5.0 8.0 0.00 0.00 0.00 61 1009.1
20210421121553 37 224 2.0 2.0 0.00 0.00 0.00 62 1009.1
20210421120518 37 221 1.0 2.0 0.00 0.00 0.00 61 1009.1
20210421115837 36 227 2.0 2.0 0.00 0.00 0.00 61 1009.1
20210421114528 36 221 0.0 0.0 0.00 0.00 0.00 62 1009.1
20210421114104 35 188 1.0 2.0 0.00 0.00 0.00 62 1008.8
20210421113646 35 180 2.0 2.0 0.00 0.00 0.00 62 1008.8
20210421113029 35 199 0.0 0.0 0.00 0.00 0.00 63 1008.8
20210421112613 35 211 0.0 0.0 0.00 0.00 0.00 65 1008.8
20210421112040 35 150 0.0 0.0 0.00 0.00 0.00 64 1009.1
20210421111434 35 244 3.0 5.0 0.00 0.00 0.00 64 1009.1
20210421111101 34 195 2.0 2.0 0.00 0.00 0.00 65 1009.5
20210421105923 34 179 0.0 2.0 0.00 0.00 0.00 65 1009.1
20210421104416 33 230 1.0 2.0 0.00 0.00 0.00 65 1009.1
20210421103903 33 203 0.0 2.0 0.00 0.00 0.00 65 1009.1
20210421103402 33 230 0.0 0.0 0.00 0.00 0.00 66 1009.1
20210421102853 33 210 0.0 0.0 0.00 0.00 0.00 67 1009.1
20210421102359 33 241 0.0 0.0 0.00 0.00 0.00 68 1008.8
20210421101839 33 204 0.0 0.0 0.00 0.00 0.00 69 1009.1
20210421101348 33 197 0.0 0.0 0.00 0.00 0.00 69 1009.1
20210421100840 33 191 0.0 0.0 0.00 0.00 0.00 68 1009.1
20210421095455 33 220 0.0 0.0 0.00 0.00 0.00 68 1009.1
20210421094404 33 211 1.0 2.0 0.00 0.00 0.00 68 1008.8
20210421093758 33 151 0.0 2.0 0.00 0.00 0.00 68 1008.8
20210421093309 33 216 0.0 0.0 0.00 0.00 0.00 68 1009.1
20210421092753 33 194 0.0 0.0 0.00 0.00 0.00 69 1009.1
20210421092250 33 237 2.0 2.0 0.00 0.00 0.00 69 1009.1
20210421091745 33 192 0.0 0.0 0.00 0.00 0.00 69 1008.8
20210421091242 33 250 0.0 0.0 0.00 0.00 0.00 68 1009.1
20210421090723 33 196 0.0 0.0 0.00 0.00 0.00 68 1009.1
20210421085328 33 177 0.0 0.0 0.00 0.00 0.00 68 1009.1
20210421084216 34 172 2.0 2.0 0.00 0.00 0.00 68 1009.1
20210421083715 34 242 1.0 2.0 0.00 0.00 0.00 68 1009.1
20210421083209 34 224 0.0 0.0 0.00 0.00 0.00 68 1009.1
20210421082753 34 234 1.0 2.0 0.00 0.00 0.00 67 1009.5
20210421082228 34 228 0.0 0.0 0.00 0.00 0.00 67 1009.5
20210421081717 34 210 0.0 0.0 0.00 0.00 0.00 67 1009.1
20210421081329 34 250 2.0 5.0 0.00 0.00 0.00 68 1009.5
20210421080846 35 227 1.0 2.0 0.00 0.00 0.00 67 1009.1
20210421074715 35 250 2.0 2.0 0.00 0.00 0.00 67 1009.1
20210421074126 35 237 2.0 2.0 0.00 0.00 0.00 67 1009.1
20210421073659 35 235 0.0 0.0 0.00 0.00 0.00 67 1009.1
20210421073118 35 247 2.0 2.0 0.00 0.00 0.00 67 1008.8
20210421072611 35 255 1.0 2.0 0.00 0.00 0.00 67 1008.8
20210421072119 35 291 0.0 0.0 0.00 0.00 0.00 68 1008.8
20210421071634 35 202 1.0 2.0 0.00 0.00 0.00 68 1008.8
20210421071132 35 223 0.0 0.0 0.00 0.00 0.00 68 1009.1
20210421070737 35 209 0.0 0.0 0.00 0.00 0.00 67 1009.5
20210421070432 36 234 0.0 2.0 0.00 0.00 0.00 68 1009.1
20210421064532 36 237 1.0 2.0 0.00 0.00 0.00 68 1009.1
20210421064030 36 193 1.0 2.0 0.00 0.00 0.00 68 1009.5
20210421063522 36 250 0.0 0.0 0.00 0.00 0.00 69 1009.1
20210421063051 37 225 1.0 2.0 0.00 0.00 0.00 67 1009.5
20210421062858 37 210 0.0 0.0 0.00 0.00 0.00 67 1009.5
20210421062233 37 236 0.0 0.0 0.00 0.00 0.00 66 1009.5
20210421061525 37 179 2.0 2.0 0.00 0.00 0.00 66 1009.5
20210421061053 38 240 2.0 2.0 0.00 0.00 0.00 66 1009.5
20210421060510 38 242 0.0 0.0 0.00 0.00 0.00 65 1009.5
20210421060412 38 245 0.0 0.0 0.00 0.00 0.00 64 1009.5
20210421060116 38 311 3.0 5.0 0.00 0.00 0.00 64 1009.9
20210421054932 38 248 2.0 2.0 0.00 0.00 0.00 63 1009.5
20210421054433 38 206 1.0 2.0 0.00 0.00 0.00 63 1009.5
20210421053926 38 250 0.0 0.0 0.00 0.00 0.00 64 1009.5
20210421053424 38 287 1.0 2.0 0.00 0.00 0.00 64 1009.5
20210421053108 38 225 1.0 2.0 0.00 0.00 0.00 64 1009.5
20210421052915 38 247 0.0 0.0 0.00 0.00 0.00 65 1009.9
20210421052119 38 225 0.0 0.0 0.00 0.00 0.00 65 1009.9
20210421051410 38 191 0.0 0.0 0.00 0.00 0.00 65 1009.5
20210421050909 38 219 0.0 0.0 0.00 0.00 0.00 65 1009.5
20210421050400 38 207 1.0 2.0 0.00 0.00 0.00 64 1009.9
20210421045937 38 224 3.0 5.0 0.00 0.00 0.00 64 1009.5
20210421045652 38 250 0.0 0.0 0.00 0.00 0.00 64 1009.9
20210421044933 37 258 2.0 2.0 0.00 0.00 0.00 64 1009.5
20210421044344 37 257 0.0 0.0 0.00 0.00 0.00 65 1009.9
20210421043837 37 268 0.0 0.0 0.00 0.00 0.00 65 1009.5
20210421043337 37 206 0.0 0.0 0.00 0.00 0.00 66 1009.5
20210421042912 38 258 0.0 0.0 0.00 0.00 0.00 65 1009.9
20210421042714 38 226 0.0 0.0 0.00 0.00 0.00 65 1009.5
20210421041852 38 266 0.0 0.0 0.00 0.00 0.00 65 1009.9
20210421041314 38 231 0.0 0.0 0.00 0.00 0.00 65 1009.9
20210421040815 38 246 0.0 0.0 0.00 0.00 0.00 65 1009.9
20210421040307 38 211 0.0 0.0 0.00 0.00 0.00 65 1009.9
20210421035917 38 218 0.0 0.0 0.00 0.07 0.07 66 1009.5
20210421035555 38 196 0.0 2.0 0.00 0.07 0.07 65 1009.5
20210421034814 38 239 2.0 5.0 0.00 0.07 0.07 65 1009.5
20210421034245 38 236 0.0 0.0 0.00 0.07 0.07 65 1009.5
20210421033735 38 231 0.0 2.0 0.00 0.07 0.07 67 1009.5
20210421033229 37 220 0.0 0.0 0.00 0.07 0.07 66 1009.5
20210421032817 37 254 0.0 2.0 0.00 0.07 0.07 67 1009.1
20210421032433 37 257 0.0 0.0 0.00 0.07 0.07 67 1009.5
20210421031723 36 206 0.0 0.0 0.00 0.07 0.07 68 1009.1
20210421031212 36 211 0.0 0.0 0.00 0.07 0.07 67 1009.1
20210421030711 36 240 1.0 2.0 0.00 0.07 0.07 69 1009.1
20210421030208 36 195 0.0 0.0 0.00 0.07 0.07 69 1009.1
20210421025917 36 229 0.0 0.0 0.00 0.07 0.07 72 1009.1
20210421025531 36 213 0.0 0.0 0.00 0.07 0.07 72 1009.1
20210421024654 36 191 0.0 0.0 0.00 0.07 0.07 72 1009.1
20210421024150 36 182 0.0 0.0 0.00 0.07 0.07 72 1009.1
20210421023644 36 194 0.0 0.0 0.00 0.07 0.07 72 1008.8
20210421023134 36 203 0.0 0.0 0.00 0.07 0.07 73 1008.8
20210421022823 36 193 0.0 0.0 0.00 0.07 0.07 73 1008.8
20210421022329 36 195 0.0 0.0 0.00 0.07 0.07 73 1008.8
20210421021621 37 195 0.0 0.0 0.00 0.07 0.07 73 1008.8
20210421021114 37 212 0.0 0.0 0.00 0.07 0.07 73 1008.8
20210421020611 37 204 0.0 0.0 0.00 0.07 0.07 73 1008.8
20210421020108 37 218 0.0 0.0 0.00 0.07 0.07 73 1008.8
20210421015825 37 219 0.0 0.0 0.00 0.07 0.07 73 1008.8
20210421015353 37 212 0.0 0.0 0.00 0.07 0.07 73 1008.4
20210421014553 37 196 0.0 0.0 0.00 0.07 0.07 73 1008.4
20210421014055 38 189 0.0 0.0 0.00 0.07 0.07 73 1008.4
20210421013551 38 178 0.0 0.0 0.00 0.07 0.07 73 1008.8
20210421013051 38 214 0.0 0.0 0.00 0.07 0.07 72 1008.4
20210421012710 38 206 0.0 0.0 0.00 0.07 0.07 73 1008.4
20210421012155 38 205 0.0 0.0 0.00 0.07 0.07 72 1008.4
20210421011535 38 236 0.0 0.0 0.00 0.07 0.07 73 1008.4
20210421011022 38 208 0.0 0.0 0.00 0.07 0.07 73 1008.4
20210421010534 38 212 0.0 0.0 0.00 0.07 0.07 72 1008.4
20210421010029 38 213 0.0 0.0 0.00 0.07 0.07 73 1008.4
20210421005914 38 225 0.0 0.0 0.00 0.07 0.07 71 1008.1
20210421005330 38 213 0.0 0.0 0.00 0.07 0.07 71 1008.1
20210421004511 39 239 0.0 0.0 0.00 0.07 0.07 73 1008.1
20210421004019 39 194 0.0 0.0 0.00 0.07 0.07 73 1007.7
20210421003451 40 216 0.0 0.0 0.00 0.07 0.07 70 1007.7
20210421002946 40 203 0.0 0.0 0.00 0.07 0.07 70 1007.7
20210421002714 41 232 0.0 0.0 0.00 0.07 0.07 69 1007.7
20210421002113 41 228 0.0 0.0 0.00 0.07 0.07 69 1007.7
20210421001434 41 213 0.0 0.0 0.00 0.07 0.07 68 1007.4
20210421000923 41 219 0.0 0.0 0.00 0.07 0.07 66 1007.4
20210421000417 42 191 0.0 0.0 0.00 0.07 0.07 67 1007.4
20210420235913 42 201 0.0 0.0 0.00 0.07 0.07 68 1007.4
20210420235746 42 178 0.0 2.0 0.00 0.07 0.07 67 1007.1
20210420234949 42 253 3.0 5.0 0.00 0.07 0.07 66 1007.1
20210420234355 42 277 1.0 2.0 0.00 0.07 0.07 67 1007.1
20210420233849 43 250 3.0 5.0 0.00 0.07 0.07 66 1007.1
20210420233348 43 236 2.0 5.0 0.00 0.07 0.07 67 1006.7
20210420232914 43 210 2.0 2.0 0.00 0.07 0.07 68 1007.1
20210420232812 43 274 5.0 8.0 0.00 0.07 0.07 68 1007.1
20210420231922 43 254 1.0 2.0 0.00 0.07 0.07 73 1006.4
20210420231326 43 224 3.0 5.0 0.00 0.07 0.07 74 1006.7
20210420230829 43 232 0.0 0.0 0.00 0.07 0.07 76 1006.7
20210420230320 43 236 0.0 0.0 0.00 0.07 0.07 75 1006.4
20210420225820 44 165 0.0 0.0 0.00 0.07 0.07 75 1006.7
20210420225534 44 214 1.0 2.0 0.00 0.07 0.07 75 1006.4
20210420224923 44 229 0.0 0.0 0.00 0.07 0.07 75 1006.7
20210420224309 44 241 2.0 2.0 0.00 0.07 0.07 75 1006.7
20210420223808 44 332 0.0 2.0 0.00 0.07 0.07 74 1006.7
20210420223301 45 169 0.0 0.0 0.00 0.07 0.07 75 1006.7
20210420222756 45 243 1.0 2.0 0.00 0.07 0.07 75 1006.4
20210420222413 45 245 0.0 0.0 0.00 0.07 0.07 75 1006.4
20210420221803 45 275 4.0 5.0 0.00 0.07 0.07 75 1006.1
20210420221249 45 247 5.0 5.0 0.00 0.07 0.07 75 1006.4
20210420220744 45 228 2.0 2.0 0.00 0.07 0.07 76 1006.4
20210420220236 45 347 0.0 2.0 0.00 0.07 0.07 76 1006.4
20210420215826 45 248 1.0 2.0 0.00 0.07 0.07 75 1006.1
20210420215435 44 205 2.0 2.0 0.00 0.07 0.07 80 1006.1
20210420214806 45 154 0.0 0.0 0.00 0.07 0.07 81 1006.1
20210420214218 45 284 0.0 0.0 0.07 0.07 0.07 82 1006.1
20210420213717 45 255 0.0 0.0 0.00 0.06 0.06 82 1006.1
20210420213217 45 210 0.0 0.0 0.00 0.06 0.06 82 1005.7
20210420212810 45 308 0.0 0.0 0.07 0.06 0.06 81 1006.1
20210420212543 46 248 2.0 5.0 0.07 0.06 0.06 82 1006.1
20210420211706 46 179 1.0 2.0 0.00 0.05 0.05 81 1006.1
20210420211156 46 189 0.0 0.0 0.07 0.05 0.05 80 1005.7
20210420210652 47 298 2.0 2.0 0.07 0.05 0.05 78 1005.4
20210420210150 47 255 0.0 0.0 0.00 0.04 0.04 78 1005.7
20210420205639 47 231 0.0 0.0 0.07 0.04 0.04 76 1005.4
20210420205222 48 182 1.0 2.0 0.07 0.04 0.04 76 1005.4
20210420204628 48 254 1.0 2.0 0.00 0.02 0.02 75 1005.4
20210420204125 48 264 6.0 8.0 0.00 0.02 0.02 73 1005.4
20210420203623 49 255 3.0 5.0 0.00 0.02 0.02 72 1004.9
20210420203125 49 257 2.0 2.0 0.00 0.02 0.02 71 1004.9
20210420202646 50 255 3.0 5.0 0.07 0.02 0.02 70 1004.9
20210420202219 50 313 2.0 2.0 0.07 0.02 0.02 68 1004.9
20210420201608 50 223 6.0 8.0 0.00 0.01 0.01 66 1004.9
20210420201103 51 256 1.0 2.0 0.00 0.01 0.01 66 1004.9
20210420200556 51 311 2.0 2.0 0.00 0.01 0.01 64 1004.9
20210420200049 51 228 0.0 0.0 0.00 0.01 0.01 64 1004.6
20210420195707 52 195 0.0 2.0 0.00 0.01 0.01 64 1004.6
20210420195121 52 290 0.0 0.0 0.00 0.01 0.01 63 1004.6
20210420194546 52 335 0.0 0.0 0.07 0.01 0.01 63 1004.3
20210420194034 52 219 0.0 0.0 0.07 0.01 0.01 62 1004.3
20210420193537 53 233 3.0 5.0 0.00 0.00 0.00 58 1004.3
20210420193048 53 244 2.0 2.0 0.00 0.00 0.00 58 1004.3
20210420192635 53 257 8.0 10.0 0.00 0.00 0.00 59 1004.6
20210420192200 53 241 2.0 2.0 0.00 0.00 0.00 59 1004.6
20210420191519 53 270 3.0 5.0 0.00 0.00 0.00 58 1004.6
20210420191043 53 249 0.0 2.0 0.00 0.00 0.00 59 1004.3
20210420190522 54 216 1.0 2.0 0.00 0.00 0.00 60 1004.3
20210420190011 55 284 2.0 2.0 0.00 0.00 0.00 58 1004.3
20210420185538 56 276 8.0 10.0 0.00 0.00 0.00 57 1004.3
20210420185018 56 280 1.0 2.0 0.00 0.00 0.00 56 1004.3
20210420184450 58 270 5.0 8.0 0.00 0.00 0.00 51 1004.3
20210420183946 58 178 7.0 13.0 0.00 0.00 0.00 45 1003.9
20210420183439 59 285 2.0 5.0 0.00 0.00 0.00 40 1003.6
20210420182940 59 252 4.0 5.0 0.00 0.00 0.00 39 1003.6
20210420182703 60 293 5.0 5.0 0.00 0.00 0.00 36 1003.6
20210420182101 60 208 0.0 0.0 0.00 0.00 0.00 37 1003.2
20210420181418 60 214 4.0 5.0 0.00 0.00 0.00 34 1003.2